Time;durP1;ratioP1;P1;durP2;ratioP2;P2;SDS_P1;SDS_P2;PMS_P1;PMS_P2;Temp;Humidity;BMP_temperature;BMP_pressure;BME280_temperature;BME280_humidity;BME280_pressure;Samples;Min_cycle;Max_cycle;Signal;HPM_P1;HPM_P2
2021/09/02 00:00:15;;;;;;;8.75;3.40;;;;;;;;;;5072377;28;20534;-64
2021/09/02 00:02:41;;;;;;;7.93;3.15;;;;;;;;;;5072113;28;20104;-64
2021/09/02 00:05:07;;;;;;;5.07;3.35;;;;;;;;;;5070892;28;20128;-64
2021/09/02 00:07:33;;;;;;;5.22;2.40;;;;;;;;;;5055383;28;20131;-64
2021/09/02 00:09:59;;;;;;;8.95;2.70;;;;;;;;;;5072662;28;20076;-64
2021/09/02 00:12:25;;;;;;;6.47;2.88;;;;;;;;;;5072479;28;20021;-63
2021/09/02 00:14:51;;;;;;;4.60;2.30;;;;;;;;;;5073188;28;20077;-63
2021/09/02 00:17:17;;;;;;;4.30;2.65;;;;;;;;;;5072094;28;20028;-64
2021/09/02 00:19:43;;;;;;;5.22;2.80;;;;;;;;;;5072725;28;20020;-64
2021/09/02 00:22:09;;;;;;;4.55;2.40;;;;;;;;;;5068306;28;20368;-64
2021/09/02 00:24:35;;;;;;;4.35;2.72;;;;;;;;;;5073024;28;20024;-64
2021/09/02 00:27:01;;;;;;;3.65;2.58;;;;;;;;;;5071881;28;20054;-63
2021/09/02 00:29:27;;;;;;;7.82;2.40;;;;;;;;;;5073044;28;20483;-64
2021/09/02 00:31:53;;;;;;;5.55;2.83;;;;;;;;;;5058665;28;20068;-63
2021/09/02 00:34:19;;;;;;;5.90;2.90;;;;;;;;;;5073259;28;20032;-63
2021/09/02 00:36:45;;;;;;;4.78;3.00;;;;;;;;;;5072413;28;20107;-63
2021/09/02 00:39:11;;;;;;;6.50;3.08;;;;;;;;;;5073213;28;20179;-64
2021/09/02 00:41:37;;;;;;;5.70;3.20;;;;;;;;;;5071987;28;20032;-63
2021/09/02 00:44:03;;;;;;;5.53;3.05;;;;;;;;;;5072817;28;20103;-64
2021/09/02 00:46:29;;;;;;;5.88;2.85;;;;;;;;;;5071560;28;20460;-63
2021/09/02 00:48:55;;;;;;;5.45;2.90;;;;;;;;;;5055204;28;20039;-63
2021/09/02 00:51:22;;;;;;;6.88;3.28;;;;;;;;;;5071728;28;20032;-65
2021/09/02 00:53:49;;;;;;;7.20;3.30;;;;;;;;;;5072767;28;20025;-64
2021/09/02 00:56:15;;;;;;;7.15;2.92;;;;;;;;;;5071585;28;20032;-63
2021/09/02 00:58:41;;;;;;;6.22;2.85;;;;;;;;;;5072606;28;20333;-64
2021/09/02 01:01:07;;;;;;;10.77;2.83;;;;;;;;;;5069732;28;20043;-63
2021/09/02 01:03:35;;;;;;;4.13;2.53;;;;;;;;;;5072672;28;20035;-64
2021/09/02 01:06:01;;;;;;;9.05;3.10;;;;;;;;;;5069732;28;20082;-63
2021/09/02 01:08:27;;;;;;;7.10;3.28;;;;;;;;;;5072397;28;20091;-63
2021/09/02 01:10:53;;;;;;;6.20;3.10;;;;;;;;;;5071436;28;20041;-64
2021/09/02 01:13:23;;;;;;;4.10;2.55;;;;;;;;;;5072480;28;20127;-64
2021/09/02 01:15:49;;;;;;;6.53;2.70;;;;;;;;;;5071781;28;20036;-66
2021/09/02 01:18:15;;;;;;;11.40;3.67;;;;;;;;;;5072202;28;20028;-62
2021/09/02 01:20:41;;;;;;;7.90;3.25;;;;;;;;;;5071359;28;20045;-63
2021/09/02 01:23:08;;;;;;;7.78;3.35;;;;;;;;;;5075160;28;20028;-63
2021/09/02 01:25:35;;;;;;;6.18;3.35;;;;;;;;;;5075356;28;20043;-63
2021/09/02 01:28:03;;;;;;;7.40;3.10;;;;;;;;;;5076547;28;20112;-65
2021/09/02 01:30:29;;;;;;;7.05;3.28;;;;;;;;;;5075383;28;20040;-64
2021/09/02 01:32:56;;;;;;;5.65;3.22;;;;;;;;;;5076434;28;20029;-64
2021/09/02 01:35:22;;;;;;;4.88;3.17;;;;;;;;;;5075373;28;20028;-64
2021/09/02 01:37:48;;;;;;;5.32;3.35;;;;;;;;;;5076044;28;20052;-64
2021/09/02 01:40:16;;;;;;;5.20;3.25;;;;;;;;;;5075311;28;20059;-64
2021/09/02 01:42:42;;;;;;;4.88;3.30;;;;;;;;;;5075970;28;20031;-64
2021/09/02 01:45:08;;;;;;;7.82;3.58;;;;;;;;;;5056869;28;20025;-65
2021/09/02 01:47:34;;;;;;;5.00;3.38;;;;;;;;;;5076067;28;20031;-64
2021/09/02 01:50:05;;;;;;;6.43;3.55;;;;;;;;;;5075442;28;20119;-65
2021/09/02 01:52:32;;;;;;;4.47;3.57;;;;;;;;;;5055897;28;20021;-65
2021/09/02 01:54:57;;;;;;;7.65;3.42;;;;;;;;;;5038063;28;20266;-67
2021/09/02 01:57:23;;;;;;;5.78;3.90;;;;;;;;;;5074270;28;20025;-66
2021/09/02 01:59:53;;;;;;;6.43;3.38;;;;;;;;;;5076054;28;20025;-71
2021/09/02 02:02:19;;;;;;;5.15;3.13;;;;;;;;;;5057047;28;20028;-63
2021/09/02 02:04:45;;;;;;;5.32;3.25;;;;;;;;;;5037818;28;20025;-65
2021/09/02 02:07:11;;;;;;;7.63;3.45;;;;;;;;;;5054954;28;20027;-64
2021/09/02 02:09:37;;;;;;;8.48;3.13;;;;;;;;;;5075651;28;20033;-64
2021/09/02 02:12:03;;;;;;;8.95;3.40;;;;;;;;;;5057051;28;20025;-64
2021/09/02 02:14:29;;;;;;;5.72;3.00;;;;;;;;;;5075597;28;20035;-66
2021/09/02 02:16:55;;;;;;;6.40;3.17;;;;;;;;;;5075070;28;20037;-65
2021/09/02 02:19:21;;;;;;;5.28;3.35;;;;;;;;;;5075499;28;20025;-72
2021/09/02 02:21:47;;;;;;;6.53;3.10;;;;;;;;;;5039353;28;20139;-67
2021/09/02 02:24:13;;;;;;;6.65;3.38;;;;;;;;;;5056165;28;20119;-71
2021/09/02 02:26:39;;;;;;;5.07;3.47;;;;;;;;;;5054795;28;20784;-72
2021/09/02 02:29:05;;;;;;;5.22;3.13;;;;;;;;;;5037830;28;20029;-70
2021/09/02 02:31:31;;;;;;;7.53;3.80;;;;;;;;;;5054537;28;20047;-73
2021/09/02 02:33:57;;;;;;;11.15;3.67;;;;;;;;;;5054198;28;20017;-71
2021/09/02 02:36:23;;;;;;;19.92;3.60;;;;;;;;;;5054431;28;20353;-72
2021/09/02 02:38:49;;;;;;;8.32;3.72;;;;;;;;;;5055366;28;20060;-65
2021/09/02 02:41:15;;;;;;;12.80;4.05;;;;;;;;;;5054463;28;20033;-72
2021/09/02 02:43:41;;;;;;;7.80;3.90;;;;;;;;;;5055566;28;20108;-73
2021/09/02 02:46:07;;;;;;;6.68;3.50;;;;;;;;;;5054849;28;20041;-72
2021/09/02 02:48:33;;;;;;;10.35;3.92;;;;;;;;;;5055602;28;20029;-64
2021/09/02 02:50:59;;;;;;;7.88;4.22;;;;;;;;;;5054123;28;20458;-66
2021/09/02 02:53:25;;;;;;;11.13;3.63;;;;;;;;;;5054678;28;20047;-64
2021/09/02 02:55:50;;;;;;;8.02;3.50;;;;;;;;;;5053932;28;20119;-64
2021/09/02 02:58:16;;;;;;;11.00;3.10;;;;;;;;;;5054573;28;20029;-64
2021/09/02 03:00:42;;;;;;;10.23;3.72;;;;;;;;;;5048347;28;20037;-64
2021/09/02 03:03:08;;;;;;;6.00;2.83;;;;;;;;;;5034696;28;20040;-64
2021/09/02 03:05:34;;;;;;;13.40;3.25;;;;;;;;;;5038678;28;20025;-65
2021/09/02 03:08:00;;;;;;;6.28;3.20;;;;;;;;;;5055074;28;20033;-70
2021/09/02 03:10:27;;;;;;;14.75;3.55;;;;;;;;;;5054221;28;20065;-70
2021/09/02 03:12:52;;;;;;;8.70;3.17;;;;;;;;;;5054503;28;20051;-64
2021/09/02 03:15:18;;;;;;;6.90;3.33;;;;;;;;;;5053584;28;20041;-65
2021/09/02 03:17:44;;;;;;;8.68;3.55;;;;;;;;;;5052972;28;20025;-66
2021/09/02 03:20:10;;;;;;;15.07;3.03;;;;;;;;;;5051927;28;20049;-65
2021/09/02 03:22:36;;;;;;;7.25;3.63;;;;;;;;;;5054132;28;20477;-66
2021/09/02 03:25:03;;;;;;;7.15;2.72;;;;;;;;;;5053274;28;20047;-64
2021/09/02 03:27:29;;;;;;;6.35;3.00;;;;;;;;;;5016253;28;20063;-65
2021/09/02 03:29:55;;;;;;;6.38;3.45;;;;;;;;;;5034268;28;20073;-64
2021/09/02 03:32:21;;;;;;;5.68;3.13;;;;;;;;;;5052971;28;20021;-65
2021/09/02 03:34:47;;;;;;;7.53;2.75;;;;;;;;;;5054131;28;20025;-64
2021/09/02 03:37:13;;;;;;;10.23;3.05;;;;;;;;;;5053081;28;20057;-65
2021/09/02 03:39:39;;;;;;;4.95;3.13;;;;;;;;;;5053652;28;20059;-64
2021/09/02 03:42:05;;;;;;;6.85;2.85;;;;;;;;;;5053296;28;20067;-64
2021/09/02 03:44:31;;;;;;;6.50;3.63;;;;;;;;;;5053676;28;20035;-64
2021/09/02 03:46:57;;;;;;;6.53;3.10;;;;;;;;;;5052373;28;20082;-65
2021/09/02 03:49:23;;;;;;;8.98;3.00;;;;;;;;;;5053604;28;20511;-64
2021/09/02 03:51:49;;;;;;;6.45;3.30;;;;;;;;;;5052697;28;20037;-65
2021/09/02 03:54:15;;;;;;;12.73;3.08;;;;;;;;;;5053539;28;20552;-64
2021/09/02 03:56:41;;;;;;;4.75;2.88;;;;;;;;;;5052503;28;20021;-64
2021/09/02 03:59:07;;;;;;;9.82;3.88;;;;;;;;;;5053395;28;20074;-64
2021/09/02 04:01:33;;;;;;;6.80;3.42;;;;;;;;;;5041893;28;20061;-64
2021/09/02 04:03:59;;;;;;;11.77;3.92;;;;;;;;;;5054115;28;20033;-74
2021/09/02 04:06:25;;;;;;;11.73;3.35;;;;;;;;;;5053478;28;20480;-73
2021/09/02 04:08:51;;;;;;;10.43;3.70;;;;;;;;;;5053932;28;20492;-72
2021/09/02 04:11:17;;;;;;;10.38;3.40;;;;;;;;;;5053047;28;20029;-73
2021/09/02 04:13:43;;;;;;;7.25;3.17;;;;;;;;;;5053790;28;20024;-73
2021/09/02 04:16:09;;;;;;;8.45;3.65;;;;;;;;;;5053136;28;20377;-73
2021/09/02 04:18:35;;;;;;;5.53;3.45;;;;;;;;;;5053213;28;20033;-64
2021/09/02 04:21:04;;;;;;;6.43;3.35;;;;;;;;;;5063453;28;20111;-63
2021/09/02 04:23:31;;;;;;;5.60;3.25;;;;;;;;;;5072948;28;20029;-64
2021/09/02 04:25:57;;;;;;;6.25;3.13;;;;;;;;;;5072241;28;20024;-63
2021/09/02 04:28:23;;;;;;;6.68;3.00;;;;;;;;;;5073026;28;20364;-65
2021/09/02 04:30:49;;;;;;;7.70;3.33;;;;;;;;;;5072229;28;20230;-72
2021/09/02 04:33:15;;;;;;;9.30;3.13;;;;;;;;;;5073239;28;20027;-71
2021/09/02 04:35:41;;;;;;;9.57;3.35;;;;;;;;;;5072710;28;20383;-65
2021/09/02 04:38:07;;;;;;;20.30;3.53;;;;;;;;;;5073454;28;20345;-64
2021/09/02 04:40:33;;;;;;;17.95;3.85;;;;;;;;;;5072123;28;20043;-64
2021/09/02 04:42:59;;;;;;;21.55;3.60;;;;;;;;;;5072971;28;20021;-72
2021/09/02 04:45:25;;;;;;;14.75;3.45;;;;;;;;;;5072221;28;20074;-72
2021/09/02 04:47:51;;;;;;;17.23;3.50;;;;;;;;;;5073389;28;20021;-71
2021/09/02 04:50:17;;;;;;;12.88;3.67;;;;;;;;;;5054232;28;20028;-73
2021/09/02 04:52:43;;;;;;;16.40;3.50;;;;;;;;;;5071977;28;20025;-67
2021/09/02 04:55:11;;;;;;;20.27;3.90;;;;;;;;;;5072251;28;20017;-73
2021/09/02 04:57:37;;;;;;;16.67;3.85;;;;;;;;;;5072156;28;20030;-72
2021/09/02 05:00:04;;;;;;;17.88;3.75;;;;;;;;;;5072224;28;20025;-70
2021/09/02 05:02:30;;;;;;;8.88;3.88;;;;;;;;;;5073285;28;20108;-72
2021/09/02 05:04:56;;;;;;;18.98;3.45;;;;;;;;;;5072920;28;20104;-72
2021/09/02 05:07:22;;;;;;;13.13;4.03;;;;;;;;;;5072055;28;20484;-72
2021/09/02 05:09:48;;;;;;;13.35;3.63;;;;;;;;;;5072988;28;20040;-72
2021/09/02 05:12:14;;;;;;;16.17;4.07;;;;;;;;;;5072349;28;20024;-73
2021/09/02 05:14:40;;;;;;;11.95;3.45;;;;;;;;;;5073239;28;20043;-69
2021/09/02 05:17:09;;;;;;;17.15;4.18;;;;;;;;;;5054988;28;20119;-71
2021/09/02 05:19:35;;;;;;;23.40;3.70;;;;;;;;;;5053152;28;20025;-72
2021/09/02 05:22:01;;;;;;;27.40;5.13;;;;;;;;;;5068792;28;20055;-73
2021/09/02 05:24:27;;;;;;;10.50;4.45;;;;;;;;;;5072999;28;20021;-71
2021/09/02 05:26:53;;;;;;;16.52;4.47;;;;;;;;;;5071384;28;20475;-71
2021/09/02 05:29:19;;;;;;;23.13;4.32;;;;;;;;;;5073217;28;20028;-71
2021/09/02 05:31:45;;;;;;;13.63;4.57;;;;;;;;;;5072327;28;20032;-71
2021/09/02 05:34:11;;;;;;;20.92;4.10;;;;;;;;;;5072777;28;20430;-73
2021/09/02 05:36:37;;;;;;;18.38;3.97;;;;;;;;;;5059021;28;20029;-73
2021/09/02 05:39:03;;;;;;;24.05;3.90;;;;;;;;;;5052796;28;20017;-66
2021/09/02 05:41:30;;;;;;;17.15;4.53;;;;;;;;;;5046237;28;20069;-71
2021/09/02 05:43:56;;;;;;;15.40;3.90;;;;;;;;;;5072725;28;20025;-68
2021/09/02 05:46:22;;;;;;;16.55;4.88;;;;;;;;;;5071835;28;20040;-71
2021/09/02 05:48:48;;;;;;;26.48;4.93;;;;;;;;;;5072609;28;20028;-75
2021/09/02 05:51:14;;;;;;;16.83;4.65;;;;;;;;;;5072212;28;20159;-72
2021/09/02 05:53:40;;;;;;;40.58;5.50;;;;;;;;;;5054582;28;20029;-73
2021/09/02 05:56:06;;;;;;;26.13;6.30;;;;;;;;;;5072030;28;20499;-75
2021/09/02 05:58:32;;;;;;;81.90;5.35;;;;;;;;;;5072592;28;20460;-74
2021/09/02 06:00:58;;;;;;;32.42;5.22;;;;;;;;;;5064275;28;20536;-72
2021/09/02 06:03:24;;;;;;;55.38;4.78;;;;;;;;;;5051411;28;20108;-75
2021/09/02 06:05:50;;;;;;;28.38;4.55;;;;;;;;;;5058966;28;20111;-74
2021/09/02 06:08:16;;;;;;;27.48;4.60;;;;;;;;;;5073590;28;20021;-75
2021/09/02 06:10:42;;;;;;;23.13;3.85;;;;;;;;;;5075067;28;20036;-75
2021/09/02 06:13:09;;;;;;;27.23;4.03;;;;;;;;;;5076463;28;20024;-75
2021/09/02 06:15:35;;;;;;;22.40;4.35;;;;;;;;;;5075194;28;20025;-75
2021/09/02 06:18:01;;;;;;;21.77;4.57;;;;;;;;;;5075875;28;20027;-76
2021/09/02 06:20:28;;;;;;;18.75;4.50;;;;;;;;;;5075023;28;20082;-73
2021/09/02 06:22:55;;;;;;;19.45;5.55;;;;;;;;;;5075973;28;20016;-75
2021/09/02 06:25:21;;;;;;;13.50;4.75;;;;;;;;;;5074709;28;20033;-73
2021/09/02 06:27:47;;;;;;;19.08;4.90;;;;;;;;;;5074571;28;20017;-72
2021/09/02 06:30:13;;;;;;;16.73;5.03;;;;;;;;;;5074780;28;20487;-75
2021/09/02 06:32:39;;;;;;;20.70;6.28;;;;;;;;;;5075910;28;20059;-74
2021/09/02 06:35:05;;;;;;;13.57;5.72;;;;;;;;;;5074996;28;20063;-72
2021/09/02 06:37:31;;;;;;;20.20;6.35;;;;;;;;;;5075664;28;20036;-74
2021/09/02 06:39:57;;;;;;;13.45;5.90;;;;;;;;;;5075657;28;20032;-75
2021/09/02 06:42:23;;;;;;;13.52;5.43;;;;;;;;;;5075197;28;20081;-75
2021/09/02 06:44:49;;;;;;;18.55;6.18;;;;;;;;;;5075547;28;20484;-75
2021/09/02 06:47:15;;;;;;;15.75;5.90;;;;;;;;;;5074778;28;20040;-74
2021/09/02 06:49:41;;;;;;;17.23;6.15;;;;;;;;;;5075421;28;20086;-75
2021/09/02 06:52:07;;;;;;;19.88;6.38;;;;;;;;;;5074658;28;20036;-74
2021/09/02 06:54:33;;;;;;;14.90;6.15;;;;;;;;;;5057343;28;20024;-75
2021/09/02 06:56:59;;;;;;;14.95;5.85;;;;;;;;;;5074571;28;20063;-75
2021/09/02 06:59:25;;;;;;;20.65;5.90;;;;;;;;;;5075239;28;20055;-75
2021/09/02 07:01:51;;;;;;;12.15;6.05;;;;;;;;;;5074374;28;20050;-74
2021/09/02 07:04:17;;;;;;;12.90;5.90;;;;;;;;;;5075170;28;20063;-78
2021/09/02 07:06:43;;;;;;;11.27;5.57;;;;;;;;;;5060738;28;20037;-75
2021/09/02 07:09:09;;;;;;;16.70;6.32;;;;;;;;;;5037697;28;20025;-74
2021/09/02 07:11:35;;;;;;;14.00;6.30;;;;;;;;;;5064729;28;20070;-74
2021/09/02 07:14:03;;;;;;;11.35;6.18;;;;;;;;;;5056401;28;20021;-74
2021/09/02 07:16:30;;;;;;;13.38;6.03;;;;;;;;;;5053648;28;20108;-74
2021/09/02 07:18:56;;;;;;;8.05;4.70;;;;;;;;;;5053471;28;20028;-74
2021/09/02 07:21:22;;;;;;;11.52;5.47;;;;;;;;;;5052665;28;20049;-74
2021/09/02 07:23:48;;;;;;;9.77;5.05;;;;;;;;;;5054696;28;20081;-74
2021/09/02 07:26:14;;;;;;;10.10;5.88;;;;;;;;;;5054663;28;20053;-73
2021/09/02 07:28:40;;;;;;;10.15;5.63;;;;;;;;;;5054603;28;20029;-74
2021/09/02 07:31:07;;;;;;;10.38;5.65;;;;;;;;;;5054571;28;20078;-73
2021/09/02 07:33:32;;;;;;;10.55;5.22;;;;;;;;;;5054565;28;20040;-75
2021/09/02 07:35:58;;;;;;;9.98;5.32;;;;;;;;;;5054610;28;20380;-74
2021/09/02 07:38:25;;;;;;;13.18;6.30;;;;;;;;;;5072427;28;20020;-75
2021/09/02 07:40:51;;;;;;;14.55;6.35;;;;;;;;;;5074493;28;20056;-75
2021/09/02 07:43:17;;;;;;;14.95;5.60;;;;;;;;;;5074439;28;20048;-74
2021/09/02 07:45:43;;;;;;;12.57;5.72;;;;;;;;;;5074093;28;20040;-74
2021/09/02 07:48:09;;;;;;;10.88;5.85;;;;;;;;;;5074303;28;20349;-75
2021/09/02 07:50:34;;;;;;;11.90;5.03;;;;;;;;;;5074095;28;20086;-74
2021/09/02 07:53:01;;;;;;;12.88;5.35;;;;;;;;;;5074090;28;20052;-75
2021/09/02 07:55:27;;;;;;;13.20;6.53;;;;;;;;;;5074088;28;20028;-75
2021/09/02 07:57:53;;;;;;;9.55;5.00;;;;;;;;;;5074019;28;20051;-74
2021/09/02 08:00:19;;;;;;;14.05;5.75;;;;;;;;;;5073737;28;20063;-74
2021/09/02 08:02:45;;;;;;;10.05;5.43;;;;;;;;;;5073907;28;20078;-75
2021/09/02 08:05:12;;;;;;;9.50;5.30;;;;;;;;;;5073859;28;20068;-74
2021/09/02 08:07:55;;;;;;;12.57;6.10;;;;;;;;;;5073829;28;20025;-75
2021/09/02 08:10:23;;;;;;;12.05;6.15;;;;;;;;;;5073723;28;20035;-73
2021/09/02 08:12:49;;;;;;;10.35;5.90;;;;;;;;;;5074179;28;20086;-75
2021/09/02 08:15:17;;;;;;;12.27;5.85;;;;;;;;;;5073538;28;20112;-74
2021/09/02 08:17:43;;;;;;;13.07;6.15;;;;;;;;;;5055837;28;20024;-74
2021/09/02 08:20:09;;;;;;;9.10;5.82;;;;;;;;;;5073497;28;20036;-75
2021/09/02 08:22:35;;;;;;;11.55;6.70;;;;;;;;;;5073618;28;20025;-75
2021/09/02 08:25:01;;;;;;;16.60;6.13;;;;;;;;;;5073908;28;20028;-76
2021/09/02 08:27:27;;;;;;;14.85;6.53;;;;;;;;;;5055781;28;20453;-73
2021/09/02 08:29:53;;;;;;;11.32;6.85;;;;;;;;;;5073489;28;20115;-75
2021/09/02 08:32:19;;;;;;;9.98;6.22;;;;;;;;;;5073384;28;20020;-74
2021/09/02 08:34:45;;;;;;;12.77;6.80;;;;;;;;;;5073509;28;20070;-75
2021/09/02 08:37:11;;;;;;;12.95;6.93;;;;;;;;;;5073428;28;20032;-75
2021/09/02 08:39:37;;;;;;;15.90;6.85;;;;;;;;;;5074025;28;20103;-74
2021/09/02 08:42:04;;;;;;;15.32;7.40;;;;;;;;;;5073261;28;20024;-73
2021/09/02 08:44:30;;;;;;;13.63;7.47;;;;;;;;;;5073610;28;20020;-71
2021/09/02 08:46:56;;;;;;;13.32;7.13;;;;;;;;;;5073265;28;20032;-75
2021/09/02 08:49:23;;;;;;;16.17;7.40;;;;;;;;;;5073243;28;20025;-74
2021/09/02 08:51:50;;;;;;;15.95;7.38;;;;;;;;;;5073207;28;20032;-74
2021/09/02 08:54:16;;;;;;;19.33;7.68;;;;;;;;;;5069742;28;20047;-75
2021/09/02 08:56:42;;;;;;;12.57;6.82;;;;;;;;;;5041657;28;20041;-74
2021/09/02 08:59:12;;;;;;;12.85;7.03;;;;;;;;;;5033214;28;20026;-75
2021/09/02 09:01:38;;;;;;;10.95;6.85;;;;;;;;;;5033206;28;20029;-74
2021/09/02 09:04:11;;;;;;;12.93;7.45;;;;;;;;;;5015483;28;20091;-74
2021/09/02 09:06:44;;;;;;;15.30;7.53;;;;;;;;;;5033192;28;20588;-74
2021/09/02 09:09:13;;;;;;;14.93;7.38;;;;;;;;;;5033012;28;20060;-74
2021/09/02 09:11:49;;;;;;;14.00;7.22;;;;;;;;;;5033193;28;20496;-74
2021/09/02 09:14:17;;;;;;;11.38;7.13;;;;;;;;;;5033286;28;20470;-74
2021/09/02 09:16:53;;;;;;;15.50;8.15;;;;;;;;;;5033241;28;20025;-74
2021/09/02 09:19:54;;;;;;;17.55;7.63;;;;;;;;;;5032974;28;20024;-74
2021/09/02 09:22:22;;;;;;;12.63;6.50;;;;;;;;;;4972349;28;20098;-74
2021/09/02 09:24:51;;;;;;;16.77;7.88;;;;;;;;;;5021688;28;20036;-74
2021/09/02 09:27:20;;;;;;;13.15;6.97;;;;;;;;;;5033117;28;20033;-73
2021/09/02 09:30:05;;;;;;;14.43;6.93;;;;;;;;;;5033253;28;20072;-74
2021/09/02 09:32:49;;;;;;;11.52;6.97;;;;;;;;;;5032902;28;20021;-74
2021/09/02 09:35:26;;;;;;;15.98;7.13;;;;;;;;;;5032803;28;20053;-75
2021/09/02 09:38:12;;;;;;;14.48;7.00;;;;;;;;;;5033326;28;20095;-75
2021/09/02 09:40:39;;;;;;;20.48;7.47;;;;;;;;;;5032728;28;20041;-74
2021/09/02 09:43:08;;;;;;;15.40;6.95;;;;;;;;;;5033842;28;20023;-74
2021/09/02 09:45:49;;;;;;;14.30;6.55;;;;;;;;;;5036549;28;20025;-73
2021/09/02 09:48:18;;;;;;;16.30;7.03;;;;;;;;;;5036668;28;20103;-73
2021/09/02 09:50:44;;;;;;;15.00;6.43;;;;;;;;;;5036311;28;20104;-74
2021/09/02 09:53:23;;;;;;;14.35;6.75;;;;;;;;;;5036761;28;20025;-74
2021/09/02 09:55:49;;;;;;;17.13;6.88;;;;;;;;;;5036466;28;20025;-74
2021/09/02 09:58:15;;;;;;;16.80;6.60;;;;;;;;;;5036497;28;20022;-73
2021/09/02 10:00:41;;;;;;;13.80;6.32;;;;;;;;;;5036418;28;20833;-74
2021/09/02 10:03:07;;;;;;;16.60;7.28;;;;;;;;;;5036812;28;20022;-74
2021/09/02 10:05:33;;;;;;;17.55;7.50;;;;;;;;;;5036242;28;20025;-74
2021/09/02 10:07:59;;;;;;;17.88;6.53;;;;;;;;;;5036879;28;20029;-73
2021/09/02 10:10:26;;;;;;;21.83;6.75;;;;;;;;;;5036187;28;20038;-74
2021/09/02 10:12:54;;;;;;;18.38;7.30;;;;;;;;;;5036239;28;20017;-74
2021/09/02 10:15:20;;;;;;;17.33;6.90;;;;;;;;;;5035986;28;20032;-73
2021/09/02 10:17:47;;;;;;;17.17;6.88;;;;;;;;;;5036138;28;20022;-74
2021/09/02 10:20:17;;;;;;;11.93;6.63;;;;;;;;;;5018143;28;20029;-74
2021/09/02 10:22:44;;;;;;;15.05;6.47;;;;;;;;;;5035865;28;20029;-74
2021/09/02 10:25:29;;;;;;;12.70;6.20;;;;;;;;;;5036041;28;20021;-73
2021/09/02 10:27:58;;;;;;;13.77;6.80;;;;;;;;;;5036061;28;20025;-73
2021/09/02 10:30:25;;;;;;;16.95;6.90;;;;;;;;;;5036002;28;20060;-74
2021/09/02 10:32:51;;;;;;;12.38;6.32;;;;;;;;;;5035939;28;20018;-73
2021/09/02 10:35:20;;;;;;;14.32;6.47;;;;;;;;;;5036080;28;20034;-74
2021/09/02 10:37:46;;;;;;;16.27;7.15;;;;;;;;;;5035819;28;20049;-70
2021/09/02 10:40:18;;;;;;;14.15;6.20;;;;;;;;;;5035685;28;20522;-73
2021/09/02 10:42:52;;;;;;;17.47;7.00;;;;;;;;;;5017967;28;20061;-73
2021/09/02 10:47:53;;;;;;;18.33;6.38;;;;;;;;;;5055428;28;20065;-75
2021/09/02 10:50:21;;;;;;;14.52;7.30;;;;;;;;;;5050750;28;20108;-74
2021/09/02 10:52:47;;;;;;;12.80;6.30;;;;;;;;;;5055300;28;20017;-74
2021/09/02 10:55:33;;;;;;;14.30;6.57;;;;;;;;;;5054111;28;20029;-73
2021/09/02 10:58:01;;;;;;;15.70;6.85;;;;;;;;;;5055453;28;20028;-74
2021/09/02 11:00:31;;;;;;;17.00;6.28;;;;;;;;;;5040216;28;20108;-74
2021/09/02 11:03:25;;;;;;;19.02;7.03;;;;;;;;;;5034770;28;20079;-72
2021/09/02 11:05:57;;;;;;;20.75;7.40;;;;;;;;;;5041711;28;20037;-73
2021/09/02 11:08:33;;;;;;;36.92;7.88;;;;;;;;;;5032592;28;20470;-63
2021/09/02 11:11:22;;;;;;;19.38;7.53;;;;;;;;;;5033922;28;20060;-74
2021/09/02 11:13:49;;;;;;;26.40;6.97;;;;;;;;;;5064258;28;20055;-68
2021/09/02 11:16:16;;;;;;;20.10;6.82;;;;;;;;;;5071573;28;20048;-72
2021/09/02 11:18:46;;;;;;;17.42;6.45;;;;;;;;;;5065188;28;20481;-67
2021/09/02 11:21:16;;;;;;;17.88;6.18;;;;;;;;;;5054308;28;20052;-72
2021/09/02 11:23:48;;;;;;;24.15;6.78;;;;;;;;;;5054389;28;20033;-70
2021/09/02 11:26:30;;;;;;;24.55;7.22;;;;;;;;;;5054645;28;20021;-70
2021/09/02 11:28:56;;;;;;;19.73;6.87;;;;;;;;;;5062047;28;20047;-68
2021/09/02 11:31:22;;;;;;;14.10;6.40;;;;;;;;;;5073136;28;20285;-67
2021/09/02 11:33:49;;;;;;;14.75;6.60;;;;;;;;;;5072816;28;20034;-74
2021/09/02 11:36:15;;;;;;;19.95;6.68;;;;;;;;;;5074001;28;20025;-67
2021/09/02 11:38:42;;;;;;;17.65;6.22;;;;;;;;;;5054239;28;20472;-72
2021/09/02 11:41:20;;;;;;;18.60;6.53;;;;;;;;;;5054102;28;20158;-72
2021/09/02 11:43:46;;;;;;;22.40;6.82;;;;;;;;;;5036397;28;20067;-72
2021/09/02 11:46:12;;;;;;;13.98;6.43;;;;;;;;;;5054080;28;20047;-67
2021/09/02 11:48:52;;;;;;;20.10;7.63;;;;;;;;;;5054024;28;20017;-66
2021/09/02 11:51:23;;;;;;;16.67;6.57;;;;;;;;;;5053874;28;20040;-66
2021/09/02 11:54:02;;;;;;;15.87;6.87;;;;;;;;;;5053846;28;20025;-74
2021/09/02 11:56:28;;;;;;;15.63;6.25;;;;;;;;;;5036124;28;20492;-74
2021/09/02 11:58:58;;;;;;;14.02;6.32;;;;;;;;;;5035779;28;20116;-73
2021/09/02 12:01:25;;;;;;;17.60;6.97;;;;;;;;;;5053402;28;20108;-72
2021/09/02 12:03:51;;;;;;;40.85;7.40;;;;;;;;;;5053140;28;20033;-69
2021/09/02 12:06:27;;;;;;;30.83;6.60;;;;;;;;;;5052843;28;20086;-66
2021/09/02 12:08:54;;;;;;;23.20;5.88;;;;;;;;;;5053550;28;20098;-66
2021/09/02 12:11:21;;;;;;;38.35;6.97;;;;;;;;;;5052178;28;20466;-71
2021/09/02 12:13:47;;;;;;;25.90;7.05;;;;;;;;;;5053510;28;20464;-70
2021/09/02 12:16:16;;;;;;;27.67;6.65;;;;;;;;;;5053433;28;20111;-70
2021/09/02 12:18:43;;;;;;;16.52;6.85;;;;;;;;;;5053158;28;20082;-69
2021/09/02 12:21:14;;;;;;;35.67;6.63;;;;;;;;;;5065433;28;20055;-71
2021/09/02 12:23:54;;;;;;;33.35;7.15;;;;;;;;;;5073259;28;20033;-69
2021/09/02 12:26:21;;;;;;;25.75;8.25;;;;;;;;;;5072974;28;20025;-69
2021/09/02 12:28:49;;;;;;;17.52;6.88;;;;;;;;;;5073324;28;20029;-67
2021/09/02 12:31:16;;;;;;;23.27;7.25;;;;;;;;;;5072630;28;20502;-69
2021/09/02 12:33:55;;;;;;;24.80;6.82;;;;;;;;;;5054690;28;20024;-67
2021/09/02 12:36:21;;;;;;;29.30;7.43;;;;;;;;;;5073106;28;20391;-67
2021/09/02 12:38:47;;;;;;;26.60;7.90;;;;;;;;;;5073007;28;20017;-70
2021/09/02 12:41:14;;;;;;;21.98;6.60;;;;;;;;;;5072864;28;20027;-69
2021/09/02 12:43:59;;;;;;;23.00;6.70;;;;;;;;;;5073712;28;20024;-69
2021/09/02 12:46:25;;;;;;;21.30;6.53;;;;;;;;;;5090705;28;20056;-70
2021/09/02 12:48:51;;;;;;;22.73;6.95;;;;;;;;;;5093254;28;20028;-67
2021/09/02 12:51:23;;;;;;;17.42;6.38;;;;;;;;;;5074775;28;20040;-67
2021/09/02 12:53:57;;;;;;;15.48;6.60;;;;;;;;;;5091454;28;20030;-65
2021/09/02 12:56:26;;;;;;;18.90;6.68;;;;;;;;;;5072678;28;20453;-65
2021/09/02 12:58:52;;;;;;;22.63;6.85;;;;;;;;;;5056444;28;20032;-64
2021/09/02 13:01:18;;;;;;;16.75;6.28;;;;;;;;;;5083640;28;20377;-68
2021/09/02 13:03:44;;;;;;;17.40;7.72;;;;;;;;;;5067390;28;20025;-69
2021/09/02 13:06:10;;;;;;;22.80;9.70;;;;;;;;;;5077419;28;20031;-66
2021/09/02 13:08:36;;;;;;;31.67;12.30;;;;;;;;;;5080828;28;20472;-68
2021/09/02 13:11:02;;;;;;;61.25;19.15;;;;;;;;;;5074262;28;20097;-68
2021/09/02 13:13:28;;;;;;;33.10;14.95;;;;;;;;;;5072627;28;20025;-70
2021/09/02 13:15:54;;;;;;;62.78;20.40;;;;;;;;;;5072440;28;20032;-70
2021/09/02 13:18:20;;;;;;;50.85;18.05;;;;;;;;;;5073982;28;20035;-69
2021/09/02 13:20:46;;;;;;;65.78;22.42;;;;;;;;;;5076822;28;20049;-72
2021/09/02 13:23:12;;;;;;;64.38;23.48;;;;;;;;;;5076928;28;20111;-71
2021/09/02 13:25:38;;;;;;;64.07;21.77;;;;;;;;;;5076736;28;20036;-70
2021/09/02 13:28:04;;;;;;;72.97;23.63;;;;;;;;;;5093596;28;20506;-72
2021/09/02 13:30:30;;;;;;;58.90;21.17;;;;;;;;;;5076968;28;20032;-71
2021/09/02 13:32:56;;;;;;;51.50;20.52;;;;;;;;;;5076548;28;20029;-65
2021/09/02 13:35:22;;;;;;;229.40;24.27;;;;;;;;;;5076506;28;20542;-73
2021/09/02 13:37:48;;;;;;;90.45;20.55;;;;;;;;;;5076618;28;20376;-68
2021/09/02 13:40:16;;;;;;;91.80;21.52;;;;;;;;;;5076562;28;20484;-72
2021/09/02 13:42:42;;;;;;;85.03;20.20;;;;;;;;;;5076565;28;20052;-74
2021/09/02 13:45:08;;;;;;;66.70;19.02;;;;;;;;;;5076720;28;20031;-67
2021/09/02 13:47:34;;;;;;;50.60;17.50;;;;;;;;;;5076594;28;20052;-71
2021/09/02 13:50:00;;;;;;;51.25;17.15;;;;;;;;;;5058508;28;20091;-73
2021/09/02 13:52:26;;;;;;;61.20;17.08;;;;;;;;;;5058423;28;20107;-73
2021/09/02 13:54:52;;;;;;;53.13;16.80;;;;;;;;;;5076634;28;20060;-72
2021/09/02 13:57:20;;;;;;;61.63;17.42;;;;;;;;;;5058694;28;20056;-74
2021/09/02 13:59:46;;;;;;;45.92;18.50;;;;;;;;;;5076592;28;20012;-73
2021/09/02 14:02:12;;;;;;;49.97;19.77;;;;;;;;;;5076515;28;20354;-74
2021/09/02 14:04:38;;;;;;;58.47;20.58;;;;;;;;;;5076698;28;20150;-74
2021/09/02 14:07:05;;;;;;;52.42;19.25;;;;;;;;;;5076156;28;20103;-74
2021/09/02 14:09:31;;;;;;;51.90;17.30;;;;;;;;;;5058363;28;20483;-72
2021/09/02 14:11:57;;;;;;;41.08;15.45;;;;;;;;;;5076010;28;20384;-74
2021/09/02 14:14:23;;;;;;;55.33;19.60;;;;;;;;;;5076239;28;20459;-73
2021/09/02 14:16:49;;;;;;;54.80;21.33;;;;;;;;;;5075695;28;20021;-75
2021/09/02 14:19:15;;;;;;;58.03;21.02;;;;;;;;;;5075835;28;20387;-73
2021/09/02 14:21:41;;;;;;;65.53;22.23;;;;;;;;;;5059006;28;20054;-74
2021/09/02 14:24:07;;;;;;;47.03;19.50;;;;;;;;;;5055826;28;20493;-74
2021/09/02 14:26:33;;;;;;;51.22;19.65;;;;;;;;;;5055812;28;20055;-73
2021/09/02 14:28:59;;;;;;;58.72;18.45;;;;;;;;;;5055538;28;20025;-73
2021/09/02 14:31:25;;;;;;;60.40;20.92;;;;;;;;;;5055516;28;20073;-70
2021/09/02 14:33:51;;;;;;;47.88;18.17;;;;;;;;;;5055609;28;20025;-72
2021/09/02 14:36:17;;;;;;;44.22;14.18;;;;;;;;;;5055865;28;20480;-73